Portada
METAR-TAF:

METAR-TAF

Aeroports :

Cahokia-Saint Louis, Illinois, Estats Units d'Amèrica

latitud: 38-34-15N, longitud: 090-09-22W, altitud: 126 m

Observació

L'informe es va fer fa 24 minuts, a les 07:53 UTC
Vent calma
Temperatura 19°C
Humitat 88%
Pressió 1019 hPa
Visibilitat: 16.1 km
Cel clar

METAR: KCPS 180753Z AUTO 00000KT 10SM CLR 19/17 A3009 RMK AO2 SLP184 T01890167 $

Hora: 03:17 (08:17 UTC)

Pronòstic

L'informe es va fer fa 2 hores i 57 minuts, a les 05:20 UTC
Pronòstic vàlid del 18 a les 06 UTC al 19 a les 06 UTC
Vent 4 kt amb direcció variable
Visibilitat: 10 km
Cel clar
A partir de les 18 a les 1500 UTC
Vent 7 kt del Nord-Est
Visibilitat: 10 km
Escasses núvols a una alçada de 5000 ft
A partir de les 19 a les 0300 UTC
Vent 3 kt amb direcció variable
Visibilitat: 10 km
Cel clar

TAF: KCPS 180520Z 1806/1906 VRB04KT P6SM SKC FM181500 04007KT P6SM FEW050 FM190300 VRB03KT P6SM SKC

Observacions i pronòstics meteorològics de més de 4000 aeroports (METAR i TAF).

Les estacions disponibles són els punts grocs i vermells al mapa.

Posi el ratolí al punt desitjat per veure el nom de l'estació.

Feu clic per veure les observacions i els pronòstics meteorològics.

Per canviar el mapa: feu clic els botons verds amb una creu de color negre per apropar; al botó verd amb un guió per allunyar la imatge; o en les fletxes verdes per a mapes adjacents.


METAR-TAF: